Time;durP1;ratioP1;P1;durP2;ratioP2;P2;SDS_P1;SDS_P2;PMS_P1;PMS_P2;Temp;Humidity;BMP_temperature;BMP_pressure;BME280_temperature;BME280_humidity;BME280_pressure;Samples;Min_cycle;Max_cycle;Signal;HPM_P1;HPM_P2
2022/10/26 00:02:07;;;;;;;;;;;;;;;11.22;77.49;101589.69;5065672;28;19926;-56
2022/10/26 00:04:32;;;;;;;;;;;;;;;11.20;77.44;101586.28;5062331;28;19940;-55
2022/10/26 00:06:57;;;;;;;;;;;;;;;11.19;77.47;101593.34;5070017;28;19920;-55
2022/10/26 00:09:23;;;;;;;;;;;;;;;11.17;77.57;101581.19;5067937;28;20613;-58
2022/10/26 00:11:48;;;;;;;;;;;;;;;11.15;77.51;101585.66;5063321;28;19928;-56
2022/10/26 00:14:13;;;;;;;;;;;;;;;11.15;77.57;101586.50;5053751;28;20358;-58
2022/10/26 00:16:39;;;;;;;;;;;;;;;11.14;77.53;101587.44;5056567;28;19916;-60
2022/10/26 00:19:04;;;;;;;;;;;;;;;11.13;77.37;101580.44;5066081;28;19931;-58
2022/10/26 00:21:29;;;;;;;;;;;;;;;11.14;77.25;101587.44;5059490;28;20452;-60
2022/10/26 00:23:55;;;;;;;;;;;;;;;11.14;77.30;101584.78;5062968;28;19920;-55
2022/10/26 00:26:20;;;;;;;;;;;;;;;11.14;77.22;101587.44;5064347;28;19928;-58
2022/10/26 00:28:45;;;;;;;;;;;;;;;11.12;77.30;101584.88;5063265;28;19924;-54
2022/10/26 00:31:12;;;;;;;;;;;;;;;11.12;77.45;101589.28;5069950;28;20452;-55
2022/10/26 00:33:38;;;;;;;;;;;;;;;11.11;77.37;101592.88;5065406;28;19923;-57
2022/10/26 00:36:03;;;;;;;;;;;;;;;11.12;77.41;101586.63;5063796;28;20339;-55
2022/10/26 00:38:28;;;;;;;;;;;;;;;11.10;77.43;101592.00;5070401;28;20008;-58
2022/10/26 00:40:54;;;;;;;;;;;;;;;11.11;77.39;101598.13;5070647;28;20424;-56
2022/10/26 00:43:19;;;;;;;;;;;;;;;11.09;77.29;101592.06;5065224;28;19966;-54
2022/10/26 00:45:45;;;;;;;;;;;;;;;11.09;77.37;101592.06;5055803;28;19924;-55
2022/10/26 00:48:22;;;;;;;;;;;;;;;11.09;77.27;101594.72;5065769;28;19932;-55
2022/10/26 00:50:48;;;;;;;;;;;;;;;11.08;77.29;101593.00;5068283;28;19917;-55
2022/10/26 00:53:14;;;;;;;;;;;;;;;11.07;77.39;101599.19;5065446;28;20370;-58
2022/10/26 00:55:42;;;;;;;;;;;;;;;11.05;77.39;101598.41;5065355;28;20090;-55
2022/10/26 00:58:08;;;;;;;;;;;;;;;11.01;77.49;101596.81;5059573;28;19920;-58
2022/10/26 01:00:33;;;;;;;;;;;;;;;11.00;77.29;101595.13;5065312;28;20297;-57
2022/10/26 01:03:01;;;;;;;;;;;;;;;10.99;77.51;101591.66;5061289;28;20481;-57
2022/10/26 01:05:26;;;;;;;;;;;;;;;11.00;77.53;101595.13;5063213;28;19928;-55
2022/10/26 01:07:52;;;;;;;;;;;;;;;11.00;77.49;101600.38;5064116;28;19933;-61
2022/10/26 01:10:18;;;;;;;;;;;;;;;10.98;77.51;101601.31;5068450;28;19920;-57
2022/10/26 01:12:43;;;;;;;;;;;;;;;10.96;77.66;101594.41;5066965;28;19922;-60
2022/10/26 01:15:09;;;;;;;;;;;;;;;10.95;77.55;101595.34;5064292;28;20348;-55
2022/10/26 01:17:46;;;;;;;;;;;;;;;10.95;77.43;101598.84;5065369;28;19970;-55
2022/10/26 01:20:29;;;;;;;;;;;;;;;10.93;77.62;101595.41;5069229;28;19917;-61
2022/10/26 01:23:01;;;;;;;;;;;;;;;10.93;77.30;101598.03;5061055;28;20446;-55
2022/10/26 01:25:32;;;;;;;;;;;;;;;10.94;77.61;101594.50;5066262;28;19923;-57
2022/10/26 01:27:59;;;;;;;;;;;;;;;10.94;77.58;101591.00;5062651;28;19920;-61
2022/10/26 01:30:42;;;;;;;;;;;;;;;10.93;77.56;101595.41;5067951;28;20019;-55
2022/10/26 01:33:19;;;;;;;;;;;;;;;10.91;77.50;101592.00;5063314;28;20179;-54
2022/10/26 01:35:44;;;;;;;;;;;;;;;10.90;77.82;101585.00;5064704;28;19917;-59
2022/10/26 01:38:21;;;;;;;;;;;;;;;10.89;77.70;101588.56;5065126;28;19927;-47
2022/10/26 01:41:05;;;;;;;;;;;;;;;10.88;77.70;101593.91;5052665;28;19924;-55
2022/10/26 01:43:32;;;;;;;;;;;;;;;10.88;77.80;101591.28;5056143;28;19917;-59
2022/10/26 01:45:58;;;;;;;;;;;;;;;10.88;77.66;101588.66;5057883;28;19916;-55
2022/10/26 01:48:24;;;;;;;;;;;;;;;10.87;77.72;101590.41;5061437;28;19921;-56
2022/10/26 01:50:52;;;;;;;;;;;;;;;10.85;77.83;101583.53;5061844;28;19955;-54
2022/10/26 01:53:18;;;;;;;;;;;;;;;10.83;77.73;101583.56;5061801;28;19920;-56
2022/10/26 01:55:45;;;;;;;;;;;;;;;10.84;77.69;101582.66;5061047;28;19927;-56
2022/10/26 01:58:23;;;;;;;;;;;;;;;10.82;77.73;101581.84;5064577;28;19925;-55
2022/10/26 02:01:11;;;;;;;;;;;;;;;10.82;77.54;101579.22;5057778;28;19924;-55
2022/10/26 02:03:45;;;;;;;;;;;;;;;10.81;77.67;101573.13;5041758;28;19923;-56
2022/10/26 02:06:18;;;;;;;;;;;;;;;10.81;77.53;101577.53;5059318;28;19960;-55
2022/10/26 02:08:55;;;;;;;;;;;;;;;10.80;77.63;101573.22;5068771;28;19959;-58
2022/10/26 02:11:31;;;;;;;;;;;;;;;10.79;77.65;101572.34;5060544;28;20386;-55
2022/10/26 02:14:06;;;;;;;;;;;;;;;10.77;77.45;101563.66;5058615;28;19969;-55
2022/10/26 02:16:52;;;;;;;;;;;;;;;10.76;77.49;101564.56;5055595;28;19994;-55
2022/10/26 02:19:27;;;;;;;;;;;;;;;10.74;77.48;101569.03;5064386;28;19986;-57
2022/10/26 02:21:56;;;;;;;;;;;;;;;10.73;77.69;101571.75;5072596;28;19920;-57
2022/10/26 02:24:22;;;;;;;;;;;;;;;10.72;77.68;101564.78;5056322;28;19913;-55
2022/10/26 02:26:49;;;;;;;;;;;;;;;10.70;77.58;101566.63;5063385;28;19932;-54
2022/10/26 02:29:17;;;;;;;;;;;;;;;10.67;77.28;101571.09;5065292;28;19975;-56
2022/10/26 02:31:45;;;;;;;;;;;;;;;10.65;77.30;101575.59;5067137;28;19928;-56
2022/10/26 02:34:12;;;;;;;;;;;;;;;10.61;77.11;101576.66;5063082;28;19955;-57
2022/10/26 02:36:40;;;;;;;;;;;;;;;10.58;77.12;101574.16;5062013;28;19987;-55
2022/10/26 02:39:06;;;;;;;;;;;;;;;10.53;77.05;101570.88;5068785;28;20320;-58
2022/10/26 02:41:33;;;;;;;;;;;;;;;10.53;77.24;101573.50;5060925;28;19920;-55
2022/10/26 02:44:15;;;;;;;;;;;;;;;10.51;77.38;101570.09;5057493;28;19924;-54
2022/10/26 02:46:41;;;;;;;;;;;;;;;10.51;77.31;101570.09;5060218;28;20006;-56
2022/10/26 02:49:07;;;;;;;;;;;;;;;10.49;77.36;101567.53;5068294;28;19967;-57
2022/10/26 02:51:41;;;;;;;;;;;;;;;10.47;77.24;101571.16;5066568;28;19928;-55
2022/10/26 02:54:14;;;;;;;;;;;;;;;10.45;77.19;101565.09;5070892;28;19951;-54
2022/10/26 02:56:55;;;;;;;;;;;;;;;10.41;77.10;101567.03;5065526;28;19931;-55
2022/10/26 02:59:22;;;;;;;;;;;;;;;10.39;76.96;101570.63;5064737;28;19916;-55
2022/10/26 03:01:49;;;;;;;;;;;;;;;10.37;77.04;101570.66;5066243;28;20018;-58
2022/10/26 03:04:14;;;;;;;;;;;;;;;10.32;76.85;101570.88;5068018;28;19919;-54
2022/10/26 03:06:40;;;;;;;;;;;;;;;10.31;77.03;101570.91;5065797;28;19924;-55
2022/10/26 03:09:05;;;;;;;;;;;;;;;10.30;76.96;101575.34;5072609;28;19916;-55
2022/10/26 03:11:30;;;;;;;;;;;;;;;10.28;77.08;101576.34;5067811;28;19963;-54
2022/10/26 03:13:56;;;;;;;;;;;;;;;10.27;76.81;101577.25;5061826;28;19959;-59
2022/10/26 03:16:21;;;;;;;;;;;;;;;10.25;76.71;101574.69;5068692;28;19972;-55
2022/10/26 03:18:46;;;;;;;;;;;;;;;10.24;76.58;101570.34;5065030;28;20340;-55
2022/10/26 03:21:11;;;;;;;;;;;;;;;10.18;76.32;101568.81;5061390;28;19925;-57
2022/10/26 03:23:37;;;;;;;;;;;;;;;10.18;76.34;101575.88;5061725;28;19932;-54
2022/10/26 03:26:02;;;;;;;;;;;;;;;10.19;76.63;101582.84;5062793;28;19996;-58
2022/10/26 03:28:27;;;;;;;;;;;;;;;10.17;76.20;101571.53;5052244;28;19921;-55
2022/10/26 03:30:53;;;;;;;;;;;;;;;10.15;76.14;101578.63;5070543;28;19928;-54
2022/10/26 03:33:18;;;;;;;;;;;;;;;10.10;76.30;101576.19;5065689;28;20344;-56
2022/10/26 03:35:44;;;;;;;;;;;;;;;10.07;76.13;101573.69;5064371;28;20035;-58
2022/10/26 03:38:09;;;;;;;;;;;;;;;10.07;76.27;101587.69;5071221;28;19920;-62
2022/10/26 03:40:34;;;;;;;;;;;;;;;10.06;76.10;101585.97;5069675;28;19974;-56
2022/10/26 03:43:00;;;;;;;;;;;;;;;10.05;75.99;101586.91;5069113;28;19954;-56
2022/10/26 03:45:26;;;;;;;;;;;;;;;10.04;75.90;101574.69;5065842;28;20034;-55
2022/10/26 03:47:51;;;;;;;;;;;;;;;10.02;76.06;101576.53;5066781;28;19929;-60
2022/10/26 03:50:18;;;;;;;;;;;;;;;10.03;76.04;101582.63;5069479;28;20316;-55
2022/10/26 03:52:43;;;;;;;;;;;;;;;9.99;75.38;101581.91;5066287;28;19921;-54
2022/10/26 03:55:09;;;;;;;;;;;;;;;9.95;75.73;101577.69;5065124;28;19923;-60
2022/10/26 03:57:39;;;;;;;;;;;;;;;9.91;75.62;101583.97;5067462;28;19932;-55
2022/10/26 04:00:04;;;;;;;;;;;;;;;9.88;75.49;101592.00;5066625;28;19923;-57
2022/10/26 04:02:30;;;;;;;;;;;;;;;9.85;75.13;101589.50;5062659;28;19920;-56
2022/10/26 04:04:55;;;;;;;;;;;;;;;9.79;74.98;101603.75;5065860;28;19999;-57
2022/10/26 04:07:20;;;;;;;;;;;;;;;9.75;75.05;101595.16;5063289;28;19924;-55
2022/10/26 04:09:46;;;;;;;;;;;;;;;9.72;74.98;101604.91;5065399;28;19924;-58
2022/10/26 04:12:11;;;;;;;;;;;;;;;9.70;74.94;101601.50;5063062;28;20011;-57
2022/10/26 04:14:36;;;;;;;;;;;;;;;9.69;75.01;101600.66;5071161;28;19923;-55
2022/10/26 04:17:01;;;;;;;;;;;;;;;9.66;75.07;101600.75;5066064;28;19925;-55
2022/10/26 04:19:27;;;;;;;;;;;;;;;9.63;74.94;101603.50;5066810;28;20341;-54
2022/10/26 04:21:52;;;;;;;;;;;;;;;9.63;74.95;101602.66;5068117;28;19924;-54
2022/10/26 04:24:17;;;;;;;;;;;;;;;9.60;74.82;101598.41;5065765;28;19940;-57
2022/10/26 04:26:44;;;;;;;;;;;;;;;9.61;74.87;101602.72;5064786;28;19924;-56
2022/10/26 04:29:09;;;;;;;;;;;;;;;9.61;74.84;101607.97;5067260;28;19924;-54
2022/10/26 04:31:34;;;;;;;;;;;;;;;9.56;74.59;101596.81;5044018;28;20394;-54
2022/10/26 04:34:00;;;;;;;;;;;;;;;9.52;74.67;101601.34;5073071;28;19943;-57
2022/10/26 04:36:25;;;;;;;;;;;;;;;9.50;74.71;101597.03;5062495;28;19930;-55
2022/10/26 04:38:50;;;;;;;;;;;;;;;9.46;74.76;101599.78;5067252;28;20002;-55
2022/10/26 04:41:16;;;;;;;;;;;;;;;9.42;74.74;101595.56;5065004;28;20389;-57
2022/10/26 04:43:41;;;;;;;;;;;;;;;9.38;74.76;101598.34;5067657;28;19921;-55
2022/10/26 04:46:06;;;;;;;;;;;;;;;9.36;74.54;101595.81;5069427;28;20373;-56
2022/10/26 04:48:32;;;;;;;;;;;;;;;9.34;74.18;101602.88;5063996;28;19928;-54
2022/10/26 04:50:57;;;;;;;;;;;;;;;9.28;74.15;101608.41;5071358;28;19920;-55
2022/10/26 04:53:23;;;;;;;;;;;;;;;9.24;74.28;101606.78;5069205;28;19935;-54
2022/10/26 04:55:48;;;;;;;;;;;;;;;9.20;74.20;101610.44;5066117;28;20291;-56
2022/10/26 04:58:14;;;;;;;;;;;;;;;9.21;74.30;101606.91;5060847;28;19978;-58
2022/10/26 05:00:39;;;;;;;;;;;;;;;9.22;74.52;101611.25;5064103;28;19971;-55
2022/10/26 05:03:06;;;;;;;;;;;;;;;9.21;74.54;101604.28;5063164;28;19920;-56
2022/10/26 05:05:32;;;;;;;;;;;;;;;9.18;74.47;101605.25;5063182;28;20297;-55
2022/10/26 05:07:57;;;;;;;;;;;;;;;9.19;74.53;101604.34;5065091;28;20015;-54
2022/10/26 05:10:23;;;;;;;;;;;;;;;9.17;74.95;101606.16;5065194;28;20048;-55
2022/10/26 05:12:53;;;;;;;;;;;;;;;9.17;74.86;101603.53;5065125;28;19916;-54
2022/10/26 05:15:18;;;;;;;;;;;;;;;9.18;74.96;101607.88;5061128;28;19917;-54
2022/10/26 05:17:43;;;;;;;;;;;;;;;9.18;75.28;101609.63;5065884;28;19924;-56
2022/10/26 05:20:12;;;;;;;;;;;;;;;9.14;75.40;101614.16;5060399;28;19917;-55
2022/10/26 05:22:37;;;;;;;;;;;;;;;9.11;75.34;101615.13;5058716;28;19916;-58
2022/10/26 05:25:03;;;;;;;;;;;;;;;9.07;75.20;101613.53;5059780;28;19940;-59
2022/10/26 05:27:28;;;;;;;;;;;;;;;9.07;75.09;101610.06;5055617;28;19937;-55
2022/10/26 05:29:54;;;;;;;;;;;;;;;9.07;74.77;101620.56;5064810;28;19952;-56
2022/10/26 05:32:19;;;;;;;;;;;;;;;9.04;74.89;101616.25;5063643;28;20302;-55
2022/10/26 05:34:44;;;;;;;;;;;;;;;9.04;74.76;101618.88;5054427;28;19968;-55
2022/10/26 05:37:10;;;;;;;;;;;;;;;9.05;74.79;101615.34;5057010;28;19928;-55
2022/10/26 05:39:35;;;;;;;;;;;;;;;9.06;74.65;101617.06;5040872;28;19921;-55
2022/10/26 05:42:00;;;;;;;;;;;;;;;9.04;74.43;101629.41;5054557;28;19924;-53
2022/10/26 05:44:26;;;;;;;;;;;;;;;9.08;74.50;101636.25;5058697;28;19932;-55
2022/10/26 05:46:51;;;;;;;;;;;;;;;9.11;74.28;101630.91;5054609;28;19935;-54
2022/10/26 05:49:16;;;;;;;;;;;;;;;9.10;74.21;101638.81;5053540;28;19920;-56
2022/10/26 05:51:44;;;;;;;;;;;;;;;9.11;74.12;101636.16;5053870;28;20298;-55
2022/10/26 05:54:09;;;;;;;;;;;;;;;9.11;74.37;101641.41;5055903;28;19927;-54
2022/10/26 05:56:36;;;;;;;;;;;;;;;9.11;74.21;101636.16;5059021;28;20695;-55
2022/10/26 05:59:02;;;;;;;;;;;;;;;9.13;74.33;101639.56;5058160;28;19924;-57
2022/10/26 06:01:36;;;;;;;;;;;;;;;9.14;74.41;101640.41;5058652;28;19969;-56
2022/10/26 06:04:16;;;;;;;;;;;;;;;9.18;74.58;101646.41;5056903;28;19928;-54
2022/10/26 06:06:43;;;;;;;;;;;;;;;9.18;74.49;101651.66;5053523;28;19947;-56
2022/10/26 06:09:10;;;;;;;;;;;;;;;9.16;74.30;101651.72;5055188;28;20255;-54
2022/10/26 06:11:35;;;;;;;;;;;;;;;9.15;74.52;101642.97;5052514;28;20015;-56
2022/10/26 06:14:02;;;;;;;;;;;;;;;9.19;74.29;101649.00;5052446;28;19952;-57
2022/10/26 06:16:41;;;;;;;;;;;;;;;9.20;74.26;101648.06;5055840;28;19928;-56
2022/10/26 06:19:25;;;;;;;;;;;;;;;9.21;74.22;101651.53;5059511;28;19920;-56
2022/10/26 06:22:09;;;;;;;;;;;;;;;9.21;74.25;101651.53;5058232;28;19999;-53
2022/10/26 06:24:37;;;;;;;;;;;;;;;9.19;74.36;101653.38;5056700;28;19923;-54
2022/10/26 06:27:12;;;;;;;;;;;;;;;9.17;74.55;101649.94;5056943;28;20429;-56
2022/10/26 06:29:55;;;;;;;;;;;;;;;9.19;74.77;101659.50;5055444;28;19917;-55
2022/10/26 06:32:21;;;;;;;;;;;;;;;9.23;74.64;101654.97;5053035;28;20354;-55
2022/10/26 06:34:49;;;;;;;;;;;;;;;9.22;74.65;101666.38;5047692;28;19921;-57
2022/10/26 06:37:14;;;;;;;;;;;;;;;9.29;74.83;101666.09;5055905;28;19921;-57
2022/10/26 06:39:43;;;;;;;;;;;;;;;9.31;74.67;101660.78;5058577;28;19925;-55
2022/10/26 06:42:09;;;;;;;;;;;;;;;9.33;74.77;101661.59;5058107;28;20751;-60
2022/10/26 06:44:35;;;;;;;;;;;;;;;9.34;74.79;101665.09;5056727;28;19929;-55
2022/10/26 06:47:30;;;;;;;;;;;;;;;9.35;74.64;101666.78;5058841;28;19939;-58
2022/10/26 06:49:55;;;;;;;;;;;;;;;9.36;74.80;101677.22;5054244;28;20375;-55
2022/10/26 06:52:26;;;;;;;;;;;;;;;9.39;74.71;101671.00;5058529;28;20400;-56
2022/10/26 06:54:53;;;;;;;;;;;;;;;9.44;75.13;101672.56;5058971;28;19927;-55
2022/10/26 06:57:22;;;;;;;;;;;;;;;9.50;74.95;101675.84;5057115;28;19951;-55
2022/10/26 06:59:50;;;;;;;;;;;;;;;9.52;74.89;101684.53;5057556;28;20084;-55
2022/10/26 07:02:16;;;;;;;;;;;;;;;9.60;74.97;101690.38;5059169;28;20401;-56
2022/10/26 07:04:41;;;;;;;;;;;;;;;9.62;74.61;101680.63;5056436;28;19920;-55
2022/10/26 07:07:17;;;;;;;;;;;;;;;9.68;74.86;101680.41;5057734;28;19964;-56
2022/10/26 07:09:43;;;;;;;;;;;;;;;9.71;74.50;101688.16;5057816;28;20411;-58
2022/10/26 07:12:08;;;;;;;;;;;;;;;9.70;74.47;101686.47;5053437;28;19925;-56
2022/10/26 07:14:33;;;;;;;;;;;;;;;9.73;74.72;101688.09;5054642;28;19927;-61
2022/10/26 07:16:59;;;;;;;;;;;;;;;9.76;74.83;101691.47;5062566;28;19974;-55
2022/10/26 07:19:25;;;;;;;;;;;;;;;9.82;74.81;101700.91;5065459;28;20616;-55
2022/10/26 07:21:50;;;;;;;;;;;;;;;9.86;74.88;101694.59;5060350;28;19971;-55
2022/10/26 07:24:15;;;;;;;;;;;;;;;9.88;74.63;101695.38;5066187;28;19970;-55
2022/10/26 07:26:41;;;;;;;;;;;;;;;9.88;74.85;101694.53;5061625;28;20011;-55
2022/10/26 07:29:06;;;;;;;;;;;;;;;9.90;74.75;101692.72;5061237;28;19925;-55
2022/10/26 07:31:31;;;;;;;;;;;;;;;9.91;74.68;101695.28;5055553;28;20409;-56
2022/10/26 07:33:57;;;;;;;;;;;;;;;9.94;74.77;101698.69;5060591;28;20321;-54
2022/10/26 07:36:22;;;;;;;;;;;;;;;9.95;74.77;101697.78;5064389;28;19964;-59
2022/10/26 07:38:50;;;;;;;;;;;;;;;9.97;74.63;101696.78;5063587;28;21292;-55
2022/10/26 07:41:15;;;;;;;;;;;;;;;9.96;74.57;101697.72;5063451;28;19989;-55
2022/10/26 07:43:44;;;;;;;;;;;;;;;9.97;74.91;101698.59;5066376;28;20393;-55
2022/10/26 07:46:09;;;;;;;;;;;;;;;9.98;75.23;101698.50;5065115;28;19963;-55
2022/10/26 07:48:34;;;;;;;;;;;;;;;10.03;75.32;101704.44;5073096;28;19955;-55
2022/10/26 07:51:01;;;;;;;;;;;;;;;10.07;75.30;101706.00;5063562;28;19923;-55
2022/10/26 07:53:26;;;;;;;;;;;;;;;10.12;75.50;101707.63;5068786;28;20421;-56
2022/10/26 07:55:53;;;;;;;;;;;;;;;10.21;75.51;101701.97;5065138;28;20523;-58
2022/10/26 07:58:22;;;;;;;;;;;;;;;10.26;75.15;101701.81;5069932;28;19927;-55
2022/10/26 08:00:47;;;;;;;;;;;;;;;10.28;75.29;101698.19;5063744;28;19928;-55
2022/10/26 08:03:13;;;;;;;;;;;;;;;10.32;75.52;101707.66;5069405;28;19943;-56
2022/10/26 08:05:38;;;;;;;;;;;;;;;10.41;75.27;101705.59;5066637;28;20412;-55
2022/10/26 08:08:04;;;;;;;;;;;;;;;10.46;75.11;101709.75;5062208;28;20082;-55
2022/10/26 08:10:29;;;;;;;;;;;;;;;10.54;75.21;101714.69;5062031;28;19917;-55
2022/10/26 08:12:55;;;;;;;;;;;;;;;10.59;75.31;101712.72;5066849;28;20301;-57
2022/10/26 08:15:20;;;;;;;;;;;;;;;10.68;75.29;101709.69;5065762;28;19974;-55
2022/10/26 08:17:45;;;;;;;;;;;;;;;10.75;75.00;101712.06;5065455;28;19920;-56
2022/10/26 08:20:11;;;;;;;;;;;;;;;10.83;74.96;101716.09;5065303;28;19921;-55
2022/10/26 08:22:36;;;;;;;;;;;;;;;10.87;74.95;101715.97;5062362;28;19943;-55
2022/10/26 08:25:01;;;;;;;;;;;;;;;10.94;74.53;101712.13;5065170;28;19969;-55
2022/10/26 08:27:26;;;;;;;;;;;;;;;10.96;74.72;101718.19;5068877;28;20010;-55
2022/10/26 08:29:52;;;;;;;;;;;;;;;11.01;74.71;101712.69;5064784;28;19921;-55
2022/10/26 08:32:17;;;;;;;;;;;;;;;11.03;74.79;101713.50;5066859;28;20015;-55
2022/10/26 08:34:43;;;;;;;;;;;;;;;11.07;74.72;101704.53;5062784;28;19958;-56
2022/10/26 08:37:08;;;;;;;;;;;;;;;11.10;74.48;101707.03;5065297;28;19917;-55
2022/10/26 08:39:33;;;;;;;;;;;;;;;11.12;74.69;101708.69;5060202;28;19929;-55
2022/10/26 08:42:05;;;;;;;;;;;;;;;11.17;74.75;101707.63;5058222;28;19964;-56
2022/10/26 08:44:39;;;;;;;;;;;;;;;11.21;74.71;101714.44;5062546;28;19920;-55
2022/10/26 08:47:22;;;;;;;;;;;;;;;11.31;74.54;101714.88;5064942;28;19920;-58
2022/10/26 08:49:53;;;;;;;;;;;;;;;11.35;74.46;101712.03;5064549;28;19951;-58
2022/10/26 08:52:23;;;;;;;;;;;;;;;11.37;74.16;101715.47;5065567;28;19935;-55
2022/10/26 08:54:53;;;;;;;;;;;;;;;11.38;74.35;101725.09;5058625;28;19923;-56
2022/10/26 08:57:25;;;;;;;;;;;;;;;11.39;74.56;101723.31;5063876;28;20082;-60
2022/10/26 09:00:01;;;;;;;;;;;;;;;11.43;74.79;101719.59;5064141;28;20601;-55
2022/10/26 09:02:27;;;;;;;;;;;;;;;11.46;74.78;101714.19;5060909;28;19924;-56
2022/10/26 09:04:53;;;;;;;;;;;;;;;11.49;75.15;101714.06;5049748;28;19966;-55
2022/10/26 09:07:24;;;;;;;;;;;;;;;11.55;75.50;101708.50;5057227;28;19939;-59
2022/10/26 09:09:49;;;;;;;;;;;;;;;11.65;75.50;101708.06;5064287;28;19916;-55
2022/10/26 09:12:22;;;;;;;;;;;;;;;11.71;75.34;101713.06;5057028;28;19916;-57
2022/10/26 09:14:48;;;;;;;;;;;;;;;11.73;75.49;101711.19;5061208;28;19916;-55
2022/10/26 09:17:13;;;;;;;;;;;;;;;11.73;75.62;101712.06;5066377;28;19973;-57
2022/10/26 09:19:50;;;;;;;;;;;;;;;11.79;75.71;101715.34;5065688;28;19962;-55
2022/10/26 09:22:22;;;;;;;;;;;;;;;11.83;75.89;101720.41;5061437;28;19971;-56
2022/10/26 09:24:53;;;;;;;;;;;;;;;11.86;75.97;101717.63;5066291;28;20383;-55
2022/10/26 09:27:29;;;;;;;;;;;;;;;11.88;75.91;101718.38;5065235;28;19932;-55
2022/10/26 09:29:56;;;;;;;;;;;;;;;11.96;76.28;101722.44;5061836;28;19928;-55
2022/10/26 09:32:28;;;;;;;;;;;;;;;12.07;76.18;101725.44;5064182;28;19920;-55
2022/10/26 09:35:16;;;;;;;;;;;;;;;12.14;76.20;101726.00;5067685;28;19943;-57
2022/10/26 09:38:08;;;;;;;;;;;;;;;12.20;76.03;101723.91;5053289;28;19924;-56
2022/10/26 09:40:39;;;;;;;;;;;;;;;12.32;76.21;101722.47;5047075;28;20149;-56
2022/10/26 09:43:13;;;;;;;;;;;;;;;12.37;76.22;101724.88;5058133;28;20051;-55
2022/10/26 09:45:41;;;;;;;;;;;;;;;12.45;76.16;101724.50;5061194;28;19921;-57
2022/10/26 09:48:12;;;;;;;;;;;;;;;12.54;76.05;101725.81;5059922;28;19966;-55
2022/10/26 09:50:39;;;;;;;;;;;;;;;12.60;75.69;101733.44;5064041;28;19913;-58
2022/10/26 09:53:04;;;;;;;;;;;;;;;12.62;75.73;101726.28;5064080;28;20417;-57
2022/10/26 09:55:30;;;;;;;;;;;;;;;12.64;75.77;101732.31;5059267;28;19921;-55
2022/10/26 09:57:59;;;;;;;;;;;;;;;12.69;75.77;101735.59;5066874;28;19920;-55
2022/10/26 10:00:26;;;;;;;;;;;;;;;12.71;75.62;101741.66;5064371;28;20353;-55
2022/10/26 10:02:52;;;;;;;;;;;;;;;12.76;75.73;101739.66;5062458;28;19952;-55
2022/10/26 10:05:31;;;;;;;;;;;;;;;12.81;75.60;101740.25;5058309;28;19921;-56
2022/10/26 10:08:15;;;;;;;;;;;;;;;12.89;75.54;101739.84;5065143;28;19975;-55
2022/10/26 10:10:54;;;;;;;;;;;;;;;12.99;75.53;101742.88;5068095;28;19935;-58
2022/10/26 10:13:21;;;;;;;;;;;;;;;13.08;75.25;101744.19;5063517;28;19917;-55
2022/10/26 10:15:53;;;;;;;;;;;;;;;13.13;75.20;101741.31;5061420;28;19946;-55
2022/10/26 10:18:22;;;;;;;;;;;;;;;13.16;75.20;101738.50;5063899;28;19928;-56
2022/10/26 10:20:52;;;;;;;;;;;;;;;13.16;75.90;101746.44;5056953;28;19928;-57
2022/10/26 10:23:26;;;;;;;;;;;;;;;13.22;76.16;101733.75;5059587;28;20390;-55
2022/10/26 10:25:59;;;;;;;;;;;;;;;13.29;76.35;101730.78;5061764;28;19916;-55
2022/10/26 10:28:25;;;;;;;;;;;;;;;13.35;76.31;101725.16;5068351;28;19935;-55
2022/10/26 10:30:58;;;;;;;;;;;;;;;13.41;76.04;101722.22;5057873;28;19916;-55
2022/10/26 10:33:30;;;;;;;;;;;;;;;13.45;76.35;101731.69;5063150;28;19925;-58
2022/10/26 10:35:56;;;;;;;;;;;;;;;13.50;76.23;101736.72;5053128;28;20417;-58
2022/10/26 10:38:22;;;;;;;;;;;;;;;13.50;76.15;101734.09;5058979;28;20429;-55
2022/10/26 10:40:57;;;;;;;;;;;;;;;13.54;76.25;101739.13;5060875;28;19924;-58
2022/10/26 10:43:24;;;;;;;;;;;;;;;13.58;76.46;101737.16;5062051;28;19917;-55
2022/10/26 10:45:51;;;;;;;;;;;;;;;13.61;76.70;101741.44;5064143;28;19921;-55
2022/10/26 10:48:22;;;;;;;;;;;;;;;13.62;76.73;101738.69;5063684;28;20389;-55
2022/10/26 10:50:55;;;;;;;;;;;;;;;13.65;76.82;101735.03;5058779;28;19928;-57
2022/10/26 10:53:24;;;;;;;;;;;;;;;13.64;76.69;101736.84;5061401;28;19913;-56
2022/10/26 10:56:12;;;;;;;;;;;;;;;13.60;76.78;101732.66;5064080;28;20004;-55
2022/10/26 10:58:50;;;;;;;;;;;;;;;13.57;77.13;101724.88;5061649;28;19916;-55
2022/10/26 11:01:19;;;;;;;;;;;;;;;13.53;77.02;101724.19;5059483;28;19916;-55
2022/10/26 11:03:55;;;;;;;;;;;;;;;13.52;77.20;101721.66;5061539;28;19917;-55
2022/10/26 11:06:27;;;;;;;;;;;;;;;13.48;77.08;101726.22;5056463;28;20400;-55
2022/10/26 11:09:04;;;;;;;;;;;;;;;13.46;77.57;101724.59;5059087;28;19937;-56
2022/10/26 11:11:35;;;;;;;;;;;;;;;13.43;77.71;101732.69;5062184;28;19923;-55
2022/10/26 11:14:08;;;;;;;;;;;;;;;13.43;77.99;101724.78;5067789;28;19955;-57
2022/10/26 11:16:36;;;;;;;;;;;;;;;13.41;77.91;101720.41;5061115;28;19916;-57
2022/10/26 11:19:09;;;;;;;;;;;;;;;13.44;77.98;101721.19;5057628;28;19923;-55
2022/10/26 11:21:36;;;;;;;;;;;;;;;13.45;77.92;101718.47;5063001;28;19974;-56
2022/10/26 11:24:11;;;;;;;;;;;;;;;13.47;77.98;101713.94;5056559;28;19928;-56
2022/10/26 11:26:44;;;;;;;;;;;;;;;13.51;78.28;101720.78;5063335;28;20348;-58
2022/10/26 11:29:31;;;;;;;;;;;;;;;13.53;78.49;101724.19;5067940;28;19920;-56
2022/10/26 11:32:00;;;;;;;;;;;;;;;13.57;78.30;101724.88;5062698;28;19920;-55
2022/10/26 11:34:48;;;;;;;;;;;;;;;13.59;78.37;101717.72;5062795;28;19917;-56
2022/10/26 11:37:28;;;;;;;;;;;;;;;13.66;78.20;101718.22;5028008;28;19920;-55
2022/10/26 11:40:01;;;;;;;;;;;;;;;13.68;78.03;101717.22;5052276;28;19920;-56
2022/10/26 11:42:39;;;;;;;;;;;;;;;13.71;78.26;101711.75;5054142;28;19924;-56
2022/10/26 11:45:10;;;;;;;;;;;;;;;13.76;78.60;101714.16;5058503;28;19921;-57
2022/10/26 11:47:40;;;;;;;;;;;;;;;13.79;78.65;101710.47;5061010;28;20014;-56
2022/10/26 11:50:14;;;;;;;;;;;;;;;13.85;78.61;101710.09;5066587;28;19921;-55
2022/10/26 11:52:45;;;;;;;;;;;;;;;13.91;78.41;101716.88;5065826;28;20002;-56
2022/10/26 11:55:11;;;;;;;;;;;;;;;13.97;78.60;101709.44;5059266;28;19955;-58
2022/10/26 11:57:36;;;;;;;;;;;;;;;14.03;78.34;101700.31;5060166;28;19952;-56
2022/10/26 12:00:06;;;;;;;;;;;;;;;14.09;78.34;101709.69;5061615;28;19913;-57
2022/10/26 12:02:37;;;;;;;;;;;;;;;14.14;78.44;101699.69;5059249;28;19959;-55
2022/10/26 12:05:11;;;;;;;;;;;;;;;14.20;78.54;101696.66;5059010;28;19928;-58
2022/10/26 12:07:39;;;;;;;;;;;;;;;14.27;78.30;101703.31;5060016;28;19932;-55
2022/10/26 12:10:07;;;;;;;;;;;;;;;14.35;78.24;101696.72;5063084;28;20682;-58
2022/10/26 12:12:49;;;;;;;;;;;;;;;14.40;78.03;101697.31;5060855;28;19974;-55
2022/10/26 12:15:33;;;;;;;;;;;;;;;14.47;78.00;101693.34;5059247;28;19925;-58
2022/10/26 12:18:11;;;;;;;;;;;;;;;14.54;77.97;101685.88;5060528;28;20011;-57
2022/10/26 12:20:45;;;;;;;;;;;;;;;14.62;77.84;101686.28;5058124;28;20031;-62
2022/10/26 12:23:11;;;;;;;;;;;;;;;14.69;77.69;101681.50;5060325;28;19927;-58
2022/10/26 12:25:37;;;;;;;;;;;;;;;14.74;77.94;101684.75;5053729;28;19943;-55
2022/10/26 12:28:02;;;;;;;;;;;;;;;14.80;77.27;101683.53;5059970;28;19928;-57
2022/10/26 12:30:32;;;;;;;;;;;;;;;14.83;76.30;101678.88;5059246;28;19920;-56
2022/10/26 12:32:57;;;;;;;;;;;;;;;14.89;75.88;101683.81;5057045;28;19925;-60
2022/10/26 12:35:33;;;;;;;;;;;;;;;14.93;75.30;101680.00;5057484;28;19923;-56
2022/10/26 12:37:59;;;;;;;;;;;;;;;15.00;74.94;101682.28;5060959;28;20309;-58
2022/10/26 12:40:33;;;;;;;;;;;;;;;15.05;73.97;101682.88;5057925;28;20078;-55
2022/10/26 12:43:22;;;;;;;;;;;;;;;15.10;73.60;101686.06;5061039;28;20011;-59
2022/10/26 12:46:06;;;;;;;;;;;;;;;15.15;73.86;101689.28;5053540;28;20367;-57
2022/10/26 12:48:41;;;;;;;;;;;;;;;15.20;73.61;101684.53;5060890;28;19954;-57
2022/10/26 12:51:23;;;;;;;;;;;;;;;15.26;73.01;101685.13;5062845;28;19974;-54